Observations for ST. NAZAIRE MONTOIR, France (LFRZ)

LFRZ 182100Z AUTO 06011KT CAVOK 04/01 Q1016 TEMPO 06015G25KT
LFRZ 182030Z AUTO 07012KT CAVOK 05/02 Q1016 TEMPO 06015G25KT
LFRZ 182000Z AUTO 07012KT CAVOK 05/02 Q1016 TEMPO 06015G25KT
LFRZ 181930Z AUTO 07014KT CAVOK 06/02 Q1016 TEMPO 06015G25KT
LFRZ 181900Z AUTO 07013KT CAVOK 06/02 Q1016 NOSIG   
LFRZ 181830Z AUTO 07013KT CAVOK 06/02 Q1016 NOSIG   
LFRZ 181800Z AUTO 06015KT CAVOK 06/03 Q1016 NOSIG   
LFRZ 181730Z AUTO 06012KT CAVOK 06/03 Q1015 NOSIG   
LFRZ 181700Z AUTO 06009KT CAVOK 06/03 Q1016 TEMPO 06015G25KT
LFRZ 181630Z AUTO 06012KT CAVOK 07/03 Q1015 TEMPO 06015G25KT
LFRZ 181600Z AUTO 06013KT CAVOK 08/04 Q1015 TEMPO 06015G25KT
LFRZ 181530Z AUTO 05013KT CAVOK 09/04 Q1015 TEMPO 06015G25KT
LFRZ 181500Z AUTO 06017KT CAVOK 09/04 Q1015 TEMPO 06015G25KT
LFRZ 181430Z AUTO 06015KT CAVOK 10/04 Q1015 TEMPO 06015G25KT
LFRZ 181400Z AUTO 06014KT CAVOK 10/05 Q1015 TEMPO 06015G25KT
LFRZ 181330Z AUTO 05012KT CAVOK 10/05 Q1015 TEMPO 06015G25KT
LFRZ 181300Z AUTO 05014KT CAVOK 10/04 Q1016 TEMPO 06015G25KT
LFRZ 181230Z AUTO 07015KT CAVOK 10/04 Q1016 TEMPO 06015G25KT
LFRZ 181200Z AUTO 06014KT CAVOK 09/04 Q1017 TEMPO 06015G25KT
LFRZ 181130Z AUTO 06015KT CAVOK 09/04 Q1017 TEMPO 06015G25KT
LFRZ 181100Z AUTO 06014KT CAVOK 08/04 Q1017 NOSIG   
LFRZ 181030Z AUTO 06015KT CAVOK 07/03 Q1018 NOSIG   
LFRZ 181000Z AUTO 07014KT CAVOK 06/03 Q1018 NOSIG   
LFRZ 180930Z AUTO 06013KT CAVOK 05/03 Q1018 NOSIG   
LFRZ 180900Z AUTO 06013KT CAVOK 05/03 Q1018 NOSIG   
LFRZ 180830Z AUTO 07012KT 8000 NSC 04/02 Q1018 NOSIG
LFRZ 180800Z AUTO 07011KT 7000 NSC 04/02 Q1018 NOSIG
LFRZ 180730Z AUTO 06010KT 7000 NSC 03/02 Q1018 NOSIG
LFRZ 180700Z AUTO 06010KT 7000 NSC 03/02 Q1017 NOSIG
LFRZ 180630Z AUTO 07010KT 7000 NSC 03/02 Q1017 NOSIG
LFRZ 180600Z AUTO 06011KT 7000 NSC 03/02 Q1017 NOSIG
LFRZ 180530Z AUTO 07012KT 7000 NSC 04/02 Q1017 NOSIG
LFRZ 180500Z AUTO 07011KT 7000 NSC 04/02 Q1017 TEMPO BKN012 
LFRZ 180430Z AUTO 06010KT 7000 NSC 04/02 Q1017 TEMPO BKN012 
LFRZ 180400Z AUTO 07010KT 8000 NSC 04/02 Q1017 TEMPO BKN012 
LFRZ 180330Z AUTO 07009KT 8000 FEW024 04/02 Q1017 TEMPO BKN012  
LFRZ 180300Z AUTO 07011KT 8000 SCT021 04/02 Q1017 TEMPO BKN012  
LFRZ 180230Z AUTO 07011KT 8000 SCT019 BKN030 04/02 Q1017 TEMPO BKN012   
LFRZ 180200Z AUTO 07011KT 7000 FEW021 03/02 Q1017 TEMPO BKN012  
LFRZ 180130Z AUTO 06011KT 7000 NSC 03/02 Q1017 TEMPO BKN012 
LFRZ 180100Z AUTO 06010KT 7000 NSC 03/02 Q1017 TEMPO BKN012 
LFRZ 180030Z AUTO 06010KT 7000 NSC 04/02 Q1017 TEMPO BKN012 
LFRZ 180000Z AUTO 06010KT 7000 NSC 04/02 Q1017 TEMPO BKN012 
LFRZ 172330Z AUTO 06010KT 8000 NSC 04/02 Q1017 TEMPO BKN012 
LFRZ 172300Z AUTO 06011KT 9000 NSC 04/02 Q1017 TEMPO BKN007 
LFRZ 172230Z AUTO 07011KT 9999 FEW021 05/02 Q1017 TEMPO BKN007  
LFRZ 172200Z AUTO 08014KT 9999 OVC020 05/02 Q1018 TEMPO BKN007  
LFRZ 172130Z AUTO 08017KT 9999 OVC019 05/02 Q1018 TEMPO BKN007  
LFRZ 172100Z AUTO 08017KT 9999 OVC019 06/02 Q1018 TEMPO BKN007  
LFRZ 172030Z AUTO 08018KT 9999 OVC017 05/02 Q1018 TEMPO BKN007